createdAt,value
2022-11-04T00:00:04.634Z,86.21
2022-11-04T00:02:31.279Z,86.46
2022-11-04T00:04:58.045Z,85.68
2022-11-04T00:07:43.273Z,84.16
2022-11-04T00:10:09.993Z,84.28
2022-11-04T00:12:36.595Z,85.25
2022-11-04T00:15:23.213Z,82.12
2022-11-04T00:17:49.824Z,82.67
2022-11-04T00:20:35.094Z,85.56
2022-11-04T00:23:33.874Z,83.80
2022-11-04T00:26:19.100Z,81.27
2022-11-04T00:28:45.863Z,81.25
2022-11-04T00:31:31.133Z,82.66
2022-11-04T00:34:00.646Z,82.38
2022-11-04T00:36:27.429Z,81.17
2022-11-04T00:38:54.123Z,81.72
2022-11-04T00:41:27.429Z,81.28
2022-11-04T00:43:55.753Z,81.52
2022-11-04T00:46:22.483Z,81.67
2022-11-04T00:48:49.354Z,82.80
2022-11-04T00:51:16.240Z,85.88
2022-11-04T00:53:42.884Z,85.41
2022-11-04T00:56:09.714Z,90.39
2022-11-04T00:58:37.190Z,88.39
2022-11-04T01:01:11.167Z,88.37
2022-11-04T01:03:38.295Z,89.84
2022-11-04T01:06:05.752Z,89.44
2022-11-04T01:08:32.455Z,88.75
2022-11-04T01:11:05.633Z,87.98
2022-11-04T01:13:32.796Z,87.98
2022-11-04T01:15:59.983Z,87.71
2022-11-04T01:18:26.665Z,86.39
2022-11-04T01:20:53.404Z,85.13
2022-11-04T01:23:20.083Z,84.75
2022-11-04T01:25:47.233Z,85.80
2022-11-04T01:28:13.824Z,84.06
2022-11-04T01:30:40.504Z,83.61
2022-11-04T01:33:07.113Z,82.12
2022-11-04T01:35:33.756Z,81.82
2022-11-04T01:38:00.397Z,85.85
2022-11-04T01:40:27.395Z,86.34
2022-11-04T01:42:54.004Z,86.69
2022-11-04T01:45:21.506Z,84.90
2022-11-04T01:47:58.573Z,89.54
2022-11-04T01:50:27.324Z,86.08
2022-11-04T01:53:26.603Z,86.54
2022-11-04T01:55:56.464Z,84.61
2022-11-04T01:58:25.774Z,83.64
2022-11-04T02:00:52.536Z,83.32
2022-11-04T02:03:21.133Z,86.40
2022-11-04T02:05:47.893Z,84.38
2022-11-04T02:08:15.872Z,85.81
2022-11-04T02:10:48.495Z,86.76
2022-11-04T02:13:15.196Z,87.92
2022-11-04T02:15:41.795Z,88.04
2022-11-04T02:18:14.567Z,89.31
2022-11-04T02:20:48.933Z,89.89
2022-11-04T02:23:34.283Z,88.99
2022-11-04T02:26:19.524Z,89.54
2022-11-04T02:28:48.952Z,88.32
2022-11-04T02:31:30.956Z,88.72
2022-11-04T02:34:04.684Z,93.08
2022-11-04T02:36:31.404Z,88.89
2022-11-04T02:39:05.064Z,91.80
2022-11-04T02:41:37.433Z,88.40
2022-11-04T02:44:09.965Z,88.98
2022-11-04T02:46:42.904Z,92.69
2022-11-04T02:49:14.524Z,94.16
2022-11-04T02:51:47.919Z,92.78
2022-11-04T02:54:17.062Z,95.18
2022-11-04T02:56:50.083Z,94.52
2022-11-04T02:59:36.736Z,90.02
2022-11-04T03:02:05.508Z,94.08
2022-11-04T03:04:35.973Z,92.06
2022-11-04T03:07:03.901Z,92.00
2022-11-04T03:09:34.114Z,89.93
2022-11-04T03:12:12.744Z,90.15
2022-11-04T03:14:45.094Z,87.80
2022-11-04T03:17:32.263Z,87.70
2022-11-04T03:20:04.175Z,88.52
2022-11-04T03:22:35.904Z,94.44
2022-11-04T03:25:12.853Z,95.79
2022-11-04T03:27:48.822Z,91.63
2022-11-04T03:30:25.336Z,92.96
2022-11-04T03:33:00.295Z,95.10
2022-11-04T03:35:29.293Z,89.77
2022-11-04T03:37:57.116Z,91.47
2022-11-04T03:40:29.054Z,94.02
2022-11-04T03:43:05.713Z,91.69
2022-11-04T03:45:56.439Z,92.53
2022-11-04T03:48:24.087Z,91.40
2022-11-04T03:50:51.721Z,90.37
2022-11-04T03:53:32.571Z,91.35
2022-11-04T03:55:59.625Z,91.45
2022-11-04T03:58:48.023Z,89.21
2022-11-04T04:01:41.472Z,91.20
2022-11-04T04:04:15.532Z,90.75
2022-11-04T04:06:44.765Z,91.51
2022-11-04T04:09:27.305Z,90.52
2022-11-04T04:12:05.972Z,89.97
2022-11-04T04:14:45.162Z,90.99
2022-11-04T04:17:11.825Z,91.89
2022-11-04T04:19:39.453Z,88.89
2022-11-04T04:22:09.672Z,90.29
2022-11-04T04:24:57.319Z,90.76
2022-11-04T04:27:32.981Z,91.59
2022-11-04T04:30:01.815Z,89.35
2022-11-04T04:32:30.023Z,90.19
2022-11-04T04:35:16.664Z,91.91
2022-11-04T04:37:44.891Z,93.30
2022-11-04T04:40:32.463Z,90.41
2022-11-04T04:43:17.622Z,89.64
2022-11-04T04:45:48.515Z,86.87
2022-11-04T04:48:15.164Z,90.00
2022-11-04T04:50:45.163Z,90.85
2022-11-04T04:53:12.059Z,91.45
2022-11-04T04:55:41.612Z,89.08
2022-11-04T04:58:08.694Z,89.90
2022-11-04T05:00:37.852Z,92.22
2022-11-04T05:03:04.544Z,91.06
2022-11-04T05:05:31.322Z,89.13
2022-11-04T05:08:04.384Z,90.82
2022-11-04T05:10:31.045Z,88.85
2022-11-04T05:13:17.754Z,89.33
2022-11-04T05:15:45.194Z,91.51
2022-11-04T05:18:11.987Z,89.84
2022-11-04T05:20:40.457Z,89.08
2022-11-04T05:23:07.562Z,87.99
2022-11-04T05:25:34.172Z,89.43
2022-11-04T05:28:01.794Z,90.72
2022-11-04T05:30:28.565Z,89.05
2022-11-04T05:32:58.571Z,89.60
2022-11-04T05:35:28.475Z,88.24
2022-11-04T05:37:58.053Z,87.29
2022-11-04T05:40:25.552Z,87.29
2022-11-04T05:42:52.995Z,88.34
2022-11-04T05:45:19.764Z,88.74
2022-11-04T05:47:46.484Z,90.70
2022-11-04T05:50:13.124Z,87.74
2022-11-04T05:52:39.863Z,89.31
2022-11-04T05:55:08.269Z,89.75
2022-11-04T05:57:35.814Z,89.15
2022-11-04T06:00:06.684Z,87.29
2022-11-04T06:02:33.410Z,89.57
2022-11-04T06:05:00.172Z,92.07
2022-11-04T06:07:26.891Z,90.79
2022-11-04T06:09:53.577Z,90.84
2022-11-04T06:12:20.186Z,89.17
2022-11-04T06:14:46.844Z,93.17
2022-11-04T06:17:20.412Z,91.92
2022-11-04T06:19:47.462Z,89.75
2022-11-04T06:22:15.867Z,93.33
2022-11-04T06:24:42.892Z,94.23
2022-11-04T06:27:10.534Z,93.75
2022-11-04T06:29:41.425Z,92.87
2022-11-04T06:32:08.966Z,94.82
2022-11-04T06:34:35.674Z,92.86
2022-11-04T06:37:05.355Z,94.64
2022-11-04T06:39:32.215Z,92.14
2022-11-04T06:41:59.629Z,93.28
2022-11-04T06:44:29.082Z,93.11
2022-11-04T06:46:58.817Z,90.16
2022-11-04T06:49:25.615Z,90.84
2022-11-04T06:51:52.699Z,93.11
2022-11-04T06:54:19.545Z,93.77
2022-11-04T06:56:47.783Z,91.93
2022-11-04T06:59:23.425Z,89.05
2022-11-04T07:02:10.640Z,90.13
2022-11-04T07:17:56.137Z,90.39
2022-11-04T07:20:55.405Z,90.67
2022-11-04T07:26:31.764Z,89.06
2022-11-04T07:29:01.705Z,89.24
2022-11-04T07:31:28.866Z,89.98
2022-11-04T07:33:55.771Z,91.25
2022-11-04T07:36:22.915Z,91.84
2022-11-04T07:38:55.125Z,90.91
2022-11-04T07:41:28.239Z,91.28
2022-11-04T07:44:08.504Z,89.25
2022-11-04T07:46:48.958Z,90.58
2022-11-04T07:49:29.334Z,88.29
2022-11-04T07:52:27.033Z,87.32
2022-11-04T07:55:30.962Z,87.03
2022-11-04T07:57:57.807Z,87.28
2022-11-04T08:00:37.034Z,88.73
2022-11-04T08:18:34.741Z,91.21
2022-11-04T08:21:14.102Z,90.49
2022-11-04T08:23:42.270Z,87.71
2022-11-04T08:26:19.049Z,87.71
2022-11-04T08:28:50.603Z,89.15
2022-11-04T08:31:30.503Z,90.46
2022-11-04T08:34:27.343Z,91.44
2022-11-04T08:37:19.116Z,88.20
2022-11-04T08:39:50.364Z,86.57
2022-11-04T08:42:19.096Z,86.85
2022-11-04T08:44:47.232Z,87.12
2022-11-04T08:47:14.264Z,86.96
2022-11-04T08:49:44.528Z,88.37
2022-11-04T08:52:42.223Z,90.25
2022-11-04T08:55:09.553Z,90.51
2022-11-04T08:57:36.555Z,91.94
2022-11-04T09:00:04.427Z,86.66
2022-11-04T09:02:33.697Z,86.76
2022-11-04T09:08:09.132Z,87.56
2022-11-04T09:11:00.668Z,86.53
2022-11-04T09:14:05.573Z,88.04
2022-11-04T09:16:37.744Z,86.80
2022-11-04T09:19:09.067Z,87.32
2022-11-04T09:21:36.303Z,86.10
2022-11-04T09:24:03.533Z,85.16
2022-11-04T09:30:22.376Z,88.41
2022-11-04T09:33:12.605Z,90.41
2022-11-04T09:36:21.525Z,90.94
2022-11-04T11:48:40.077Z,96.95
2022-11-04T11:51:12.793Z,95.56
2022-11-04T11:53:48.365Z,95.17
2022-11-04T11:56:23.705Z,97.17
2022-11-04T13:45:02.115Z,82.56
2022-11-04T14:14:11.802Z,79.12
2022-11-04T15:19:08.025Z,75.00
2022-11-04T15:22:14.294Z,74.92
2022-11-04T15:24:44.367Z,73.92
2022-11-04T15:27:14.055Z,78.16
2022-11-04T15:29:41.335Z,80.88
2022-11-04T15:32:08.194Z,79.16
2022-11-04T15:34:36.490Z,77.64
2022-11-04T15:37:05.697Z,76.90
2022-11-04T15:39:44.255Z,75.81
2022-11-04T15:42:37.332Z,74.80
2022-11-04T15:45:22.170Z,74.17
2022-11-04T15:47:49.284Z,73.78
2022-11-04T15:50:24.395Z,73.39
2022-11-04T15:52:54.090Z,75.54
2022-11-04T15:55:22.888Z,75.63
2022-11-04T15:57:50.283Z,76.48
2022-11-04T16:00:16.887Z,77.00
2022-11-04T16:02:51.046Z,78.63
2022-11-04T16:05:23.635Z,76.72
2022-11-04T16:07:51.575Z,76.87
2022-11-04T16:10:25.184Z,77.00
2022-11-04T16:13:14.986Z,80.59
2022-11-04T16:15:47.317Z,80.67
2022-11-04T16:18:34.525Z,81.25
2022-11-04T16:21:09.556Z,79.45
2022-11-04T16:23:43.483Z,80.12
2022-11-04T16:26:10.216Z,85.60
2022-11-04T16:28:37.932Z,86.03
2022-11-04T16:31:06.745Z,87.05
2022-11-04T16:33:33.465Z,87.90
2022-11-04T16:36:00.273Z,90.63
2022-11-04T16:38:26.925Z,93.22
2022-11-04T16:40:53.630Z,96.10
2022-11-04T16:43:21.528Z,91.35
2022-11-04T16:45:53.521Z,90.63
2022-11-04T16:48:21.196Z,89.91
2022-11-04T16:50:49.156Z,91.41
2022-11-04T16:53:15.955Z,89.56
2022-11-04T16:55:43.353Z,87.77
2022-11-04T16:58:13.368Z,90.21
2022-11-04T17:00:39.975Z,90.57
2022-11-04T17:03:14.407Z,88.72
2022-11-04T17:05:41.075Z,91.22
2022-11-04T17:08:09.353Z,92.18
2022-11-04T17:10:36.501Z,88.45
2022-11-04T17:13:03.233Z,90.01
2022-11-04T17:16:17.670Z,89.63
2022-11-04T17:18:48.337Z,89.95
2022-11-04T17:21:17.455Z,89.06
2022-11-04T17:23:44.966Z,92.39
2022-11-04T17:26:16.394Z,89.74
2022-11-04T17:28:43.322Z,87.22
2022-11-04T17:31:18.443Z,85.87
2022-11-04T17:33:52.213Z,84.25
2022-11-04T17:36:19.702Z,83.43
2022-11-04T17:38:47.137Z,82.86
2022-11-04T17:41:32.293Z,82.62
2022-11-04T17:44:02.172Z,81.03
2022-11-04T17:46:35.947Z,85.65
2022-11-04T17:49:03.729Z,87.55
2022-11-04T17:51:30.974Z,87.54
2022-11-04T17:53:57.707Z,91.06
2022-11-04T17:56:25.292Z,93.54
2022-11-04T17:58:52.557Z,97.69
2022-11-04T18:01:20.999Z,95.86
2022-11-04T18:03:48.077Z,93.62
2022-11-04T18:06:14.955Z,90.36
2022-11-04T18:08:41.764Z,89.90
2022-11-04T18:11:09.923Z,91.53
2022-11-04T18:13:36.696Z,89.52
2022-11-04T18:16:13.348Z,87.71
2022-11-04T18:18:40.354Z,85.33
2022-11-04T18:21:08.134Z,85.47
2022-11-04T18:23:35.150Z,86.53
2022-11-04T18:26:03.138Z,84.37
2022-11-04T18:28:29.915Z,82.04
2022-11-04T18:30:56.697Z,81.29
2022-11-04T18:33:23.339Z,82.91
2022-11-04T18:35:50.063Z,87.49
2022-11-04T18:38:16.776Z,86.61
2022-11-04T18:40:44.045Z,86.46
2022-11-04T18:43:10.993Z,86.98
2022-11-04T18:45:37.934Z,83.20
2022-11-04T18:48:05.135Z,82.47
2022-11-04T18:50:31.936Z,87.29
2022-11-04T18:52:58.605Z,87.82
2022-11-04T18:55:25.293Z,86.35
2022-11-04T18:57:55.741Z,85.69
2022-11-04T19:00:22.875Z,84.85
2022-11-04T19:02:49.715Z,86.82
2022-11-04T19:05:16.586Z,86.60
2022-11-04T19:07:43.898Z,90.77
2022-11-04T19:10:11.562Z,92.28
2022-11-04T19:12:56.835Z,92.57
2022-11-04T19:15:23.696Z,91.36
2022-11-04T19:17:50.644Z,92.81
2022-11-04T19:20:17.345Z,90.58
2022-11-04T19:22:44.306Z,85.17
2022-11-04T19:48:06.453Z,79.54
2022-11-04T19:50:53.269Z,78.19
2022-11-04T19:53:28.765Z,77.81
2022-11-04T19:56:16.313Z,78.05
2022-11-04T19:58:44.126Z,77.25
2022-11-04T20:01:11.610Z,78.56
2022-11-04T20:03:38.823Z,78.93
2022-11-04T20:06:07.627Z,78.17
2022-11-04T20:08:36.484Z,78.16
2022-11-04T20:11:04.433Z,78.05
2022-11-04T20:13:49.611Z,77.46
2022-11-04T20:16:16.924Z,77.25
2022-11-04T20:18:44.134Z,76.21
2022-11-04T20:21:11.466Z,75.20
2022-11-04T20:23:38.655Z,75.02
2022-11-04T20:26:06.213Z,76.21
2022-11-04T20:28:32.995Z,74.94
2022-11-04T20:30:59.723Z,75.44
2022-11-04T20:33:26.525Z,74.79
2022-11-04T20:35:53.250Z,73.27
2022-11-04T20:38:20.058Z,74.24
2022-11-04T20:40:48.577Z,73.89
2022-11-04T20:43:15.305Z,72.64
2022-11-04T20:45:42.048Z,73.40
2022-11-04T20:48:09.243Z,71.47
2022-11-04T20:50:36.304Z,72.47
2022-11-04T20:53:03.065Z,73.56
2022-11-04T20:55:29.829Z,72.24
2022-11-04T20:57:57.146Z,72.13
2022-11-04T21:00:23.941Z,72.26
2022-11-04T21:02:50.744Z,71.35
2022-11-04T21:05:17.597Z,71.87
2022-11-04T21:07:44.295Z,70.65
2022-11-04T21:10:11.144Z,69.63
2022-11-04T21:12:37.890Z,70.41
2022-11-04T21:15:24.766Z,69.49
2022-11-04T21:17:51.476Z,69.37
2022-11-04T21:20:18.394Z,69.41
2022-11-04T21:22:45.106Z,69.28
2022-11-04T21:25:11.801Z,69.15
2022-11-04T21:27:38.523Z,69.44
2022-11-04T21:30:06.405Z,69.97
2022-11-04T21:32:33.117Z,68.95
2022-11-04T21:34:59.822Z,69.94
2022-11-04T21:37:26.567Z,69.75
2022-11-04T21:39:53.223Z,69.85
2022-11-04T21:42:19.923Z,70.22
2022-11-04T21:44:46.744Z,70.43
2022-11-04T21:47:13.506Z,70.99
2022-11-04T21:49:40.216Z,69.83
2022-11-04T21:52:06.905Z,68.88
2022-11-04T21:54:33.617Z,69.49
2022-11-04T21:57:00.265Z,70.40
2022-11-04T21:59:26.996Z,70.47
2022-11-04T22:01:53.836Z,69.49
2022-11-04T22:04:20.804Z,69.80
2022-11-04T22:06:47.613Z,69.17
2022-11-04T22:09:14.464Z,68.79
2022-11-04T22:11:41.324Z,69.12
2022-11-04T22:14:08.896Z,68.60
2022-11-04T22:16:36.758Z,67.73
2022-11-04T22:19:04.683Z,67.98
2022-11-04T22:21:31.823Z,68.06
2022-11-04T22:23:59.116Z,67.49
2022-11-04T22:26:27.516Z,67.46
2022-11-04T22:28:54.793Z,67.16
2022-11-04T22:31:26.173Z,66.94
2022-11-04T22:33:53.003Z,66.63
2022-11-04T22:36:20.048Z,66.71
2022-11-04T22:38:46.856Z,67.06
2022-11-04T22:47:05.167Z,66.24
2022-11-04T22:52:36.655Z,66.92
2022-11-04T22:55:47.214Z,67.29
2022-11-04T23:14:46.154Z,67.54
2022-11-04T23:17:34.753Z,67.31
2022-11-04T23:23:34.204Z,67.74
2022-11-04T23:26:00.852Z,66.59
2022-11-04T23:28:46.304Z,66.83
2022-11-04T23:31:12.964Z,66.54
2022-11-04T23:33:58.135Z,67.17
2022-11-04T23:36:43.435Z,67.83
2022-11-04T23:39:10.094Z,67.50
2022-11-04T23:41:55.633Z,68.65
2022-11-04T23:44:40.723Z,67.82
2022-11-04T23:47:25.934Z,67.77
2022-11-04T23:50:11.296Z,68.17
2022-11-04T23:52:56.416Z,67.65
2022-11-04T23:55:41.836Z,67.62
2022-11-04T23:58:27.690Z,68.95
